sensor_id;sensor_type;location;lat;lon;timestamp;temperature;humidity
19085;DHT22;9675;51.538;6.728;2023-08-07T00:01:45;16.40;99.90
19085;DHT22;9675;51.538;6.728;2023-08-07T00:04:12;16.40;99.90
19085;DHT22;9675;51.538;6.728;2023-08-07T00:06:39;16.40;99.90
19085;DHT22;9675;51.538;6.728;2023-08-07T00:09:06;16.40;99.90
19085;DHT22;9675;51.538;6.728;2023-08-07T00:11:33;16.40;99.90
19085;DHT22;9675;51.538;6.728;2023-08-07T00:14:00;16.40;99.90
19085;DHT22;9675;51.538;6.728;2023-08-07T00:16:27;16.40;99.90
19085;DHT22;9675;51.538;6.728;2023-08-07T00:18:56;16.40;99.90
19085;DHT22;9675;51.538;6.728;2023-08-07T00:21:23;16.40;99.90
19085;DHT22;9675;51.538;6.728;2023-08-07T00:23:50;16.40;99.90
19085;DHT22;9675;51.538;6.728;2023-08-07T00:26:17;16.30;99.90
19085;DHT22;9675;51.538;6.728;2023-08-07T00:28:44;16.30;99.90
19085;DHT22;9675;51.538;6.728;2023-08-07T00:31:12;16.30;99.90
19085;DHT22;9675;51.538;6.728;2023-08-07T00:33:39;16.30;99.90
19085;DHT22;9675;51.538;6.728;2023-08-07T00:36:08;16.30;99.90
19085;DHT22;9675;51.538;6.728;2023-08-07T00:38:35;16.30;99.90
19085;DHT22;9675;51.538;6.728;2023-08-07T00:41:02;16.30;99.90
19085;DHT22;9675;51.538;6.728;2023-08-07T00:43:29;16.30;99.90
19085;DHT22;9675;51.538;6.728;2023-08-07T00:45:56;16.30;99.90
19085;DHT22;9675;51.538;6.728;2023-08-07T00:48:23;16.30;99.90
19085;DHT22;9675;51.538;6.728;2023-08-07T00:50:51;16.20;99.90
19085;DHT22;9675;51.538;6.728;2023-08-07T00:53:20;16.20;99.90
19085;DHT22;9675;51.538;6.728;2023-08-07T00:55:48;16.20;99.90
19085;DHT22;9675;51.538;6.728;2023-08-07T00:58:15;16.20;99.90
19085;DHT22;9675;51.538;6.728;2023-08-07T01:00:42;16.20;99.90
19085;DHT22;9675;51.538;6.728;2023-08-07T01:03:11;16.20;99.90
19085;DHT22;9675;51.538;6.728;2023-08-07T01:05:39;16.20;99.90
19085;DHT22;9675;51.538;6.728;2023-08-07T01:08:07;16.10;99.90
19085;DHT22;9675;51.538;6.728;2023-08-07T01:10:45;16.10;99.90
19085;DHT22;9675;51.538;6.728;2023-08-07T01:13:31;16.20;99.90
19085;DHT22;9675;51.538;6.728;2023-08-07T01:16:06;16.10;99.90
19085;DHT22;9675;51.538;6.728;2023-08-07T01:18:38;16.10;99.90
19085;DHT22;9675;51.538;6.728;2023-08-07T01:21:07;16.10;99.90
19085;DHT22;9675;51.538;6.728;2023-08-07T01:23:45;16.10;99.90
19085;DHT22;9675;51.538;6.728;2023-08-07T01:26:12;16.10;99.90
19085;DHT22;9675;51.538;6.728;2023-08-07T01:28:44;16.10;99.90
19085;DHT22;9675;51.538;6.728;2023-08-07T01:31:17;16.10;99.90
19085;DHT22;9675;51.538;6.728;2023-08-07T01:33:54;16.10;99.90
19085;DHT22;9675;51.538;6.728;2023-08-07T01:36:27;16.10;99.90
19085;DHT22;9675;51.538;6.728;2023-08-07T01:38:57;16.10;99.90
19085;DHT22;9675;51.538;6.728;2023-08-07T01:41:28;16.10;99.90
19085;DHT22;9675;51.538;6.728;2023-08-07T01:43:55;16.00;99.90
19085;DHT22;9675;51.538;6.728;2023-08-07T01:46:23;16.10;99.90
19085;DHT22;9675;51.538;6.728;2023-08-07T01:48:50;16.00;99.90
19085;DHT22;9675;51.538;6.728;2023-08-07T01:51:17;16.00;99.90
19085;DHT22;9675;51.538;6.728;2023-08-07T01:53:44;16.00;99.90
19085;DHT22;9675;51.538;6.728;2023-08-07T01:56:14;16.00;99.90
19085;DHT22;9675;51.538;6.728;2023-08-07T01:58:41;16.00;99.90
19085;DHT22;9675;51.538;6.728;2023-08-07T02:01:08;16.00;99.90
19085;DHT22;9675;51.538;6.728;2023-08-07T02:03:35;15.90;99.90
19085;DHT22;9675;51.538;6.728;2023-08-07T02:06:02;15.90;99.90
19085;DHT22;9675;51.538;6.728;2023-08-07T02:08:29;15.90;99.90
19085;DHT22;9675;51.538;6.728;2023-08-07T02:10:56;15.90;99.90
19085;DHT22;9675;51.538;6.728;2023-08-07T02:13:28;15.90;99.90
19085;DHT22;9675;51.538;6.728;2023-08-07T02:15:55;15.90;99.90
19085;DHT22;9675;51.538;6.728;2023-08-07T02:18:22;15.90;99.90
19085;DHT22;9675;51.538;6.728;2023-08-07T02:20:49;15.90;99.90
19085;DHT22;9675;51.538;6.728;2023-08-07T02:23:16;15.90;99.90
19085;DHT22;9675;51.538;6.728;2023-08-07T02:25:43;15.90;99.90
19085;DHT22;9675;51.538;6.728;2023-08-07T02:28:11;15.90;99.90
19085;DHT22;9675;51.538;6.728;2023-08-07T02:30:39;15.80;99.90
19085;DHT22;9675;51.538;6.728;2023-08-07T02:33:06;15.80;99.90
19085;DHT22;9675;51.538;6.728;2023-08-07T02:35:33;15.80;99.90
19085;DHT22;9675;51.538;6.728;2023-08-07T02:38:00;15.80;99.90
19085;DHT22;9675;51.538;6.728;2023-08-07T02:40:27;15.80;99.90
19085;DHT22;9675;51.538;6.728;2023-08-07T02:42:54;15.80;99.90
19085;DHT22;9675;51.538;6.728;2023-08-07T02:45:21;15.80;99.90
19085;DHT22;9675;51.538;6.728;2023-08-07T02:47:49;15.80;99.90
19085;DHT22;9675;51.538;6.728;2023-08-07T02:50:16;15.80;99.90
19085;DHT22;9675;51.538;6.728;2023-08-07T02:52:43;15.80;99.90
19085;DHT22;9675;51.538;6.728;2023-08-07T02:55:10;15.70;99.90
19085;DHT22;9675;51.538;6.728;2023-08-07T02:57:37;15.70;99.90
19085;DHT22;9675;51.538;6.728;2023-08-07T03:00:05;15.70;99.90
19085;DHT22;9675;51.538;6.728;2023-08-07T03:02:33;15.80;99.90
19085;DHT22;9675;51.538;6.728;2023-08-07T03:05:02;15.70;99.90
19085;DHT22;9675;51.538;6.728;2023-08-07T03:07:29;15.70;99.90
19085;DHT22;9675;51.538;6.728;2023-08-07T03:09:56;15.70;99.90
19085;DHT22;9675;51.538;6.728;2023-08-07T03:12:23;15.70;99.90
19085;DHT22;9675;51.538;6.728;2023-08-07T03:14:50;15.70;99.90
19085;DHT22;9675;51.538;6.728;2023-08-07T03:17:17;15.70;99.90
19085;DHT22;9675;51.538;6.728;2023-08-07T03:19:46;15.60;99.90
19085;DHT22;9675;51.538;6.728;2023-08-07T03:22:14;15.60;99.90
19085;DHT22;9675;51.538;6.728;2023-08-07T03:24:46;15.60;99.90
19085;DHT22;9675;51.538;6.728;2023-08-07T03:27:13;15.60;99.90
19085;DHT22;9675;51.538;6.728;2023-08-07T03:29:40;15.60;99.90
19085;DHT22;9675;51.538;6.728;2023-08-07T03:32:08;15.60;99.90
19085;DHT22;9675;51.538;6.728;2023-08-07T03:34:35;15.60;99.90
19085;DHT22;9675;51.538;6.728;2023-08-07T03:37:03;15.60;99.90
19085;DHT22;9675;51.538;6.728;2023-08-07T03:39:31;15.60;99.90
19085;DHT22;9675;51.538;6.728;2023-08-07T03:41:58;15.60;99.90
19085;DHT22;9675;51.538;6.728;2023-08-07T03:44:25;15.60;99.90
19085;DHT22;9675;51.538;6.728;2023-08-07T03:46:52;15.60;99.90
19085;DHT22;9675;51.538;6.728;2023-08-07T03:49:21;15.60;99.90
19085;DHT22;9675;51.538;6.728;2023-08-07T03:51:49;15.60;99.90
19085;DHT22;9675;51.538;6.728;2023-08-07T03:54:16;15.50;99.90
19085;DHT22;9675;51.538;6.728;2023-08-07T03:56:44;15.60;99.90
19085;DHT22;9675;51.538;6.728;2023-08-07T03:59:12;15.50;99.90
19085;DHT22;9675;51.538;6.728;2023-08-07T04:01:39;15.50;99.90
19085;DHT22;9675;51.538;6.728;2023-08-07T04:04:06;15.50;99.90
19085;DHT22;9675;51.538;6.728;2023-08-07T04:06:33;15.50;99.90
19085;DHT22;9675;51.538;6.728;2023-08-07T04:09:00;15.50;99.90
19085;DHT22;9675;51.538;6.728;2023-08-07T04:11:28;15.50;99.90
19085;DHT22;9675;51.538;6.728;2023-08-07T04:13:57;15.50;99.90
19085;DHT22;9675;51.538;6.728;2023-08-07T04:16:24;15.50;99.90
19085;DHT22;9675;51.538;6.728;2023-08-07T04:18:51;15.40;99.90
19085;DHT22;9675;51.538;6.728;2023-08-07T04:21:18;15.40;99.90
19085;DHT22;9675;51.538;6.728;2023-08-07T04:23:45;15.40;99.90
19085;DHT22;9675;51.538;6.728;2023-08-07T04:26:12;15.40;99.90
19085;DHT22;9675;51.538;6.728;2023-08-07T04:28:39;15.40;99.90
19085;DHT22;9675;51.538;6.728;2023-08-07T04:31:08;15.40;99.90
19085;DHT22;9675;51.538;6.728;2023-08-07T04:33:35;15.40;99.90
19085;DHT22;9675;51.538;6.728;2023-08-07T04:36:03;15.40;99.90
19085;DHT22;9675;51.538;6.728;2023-08-07T04:38:30;15.40;99.90
19085;DHT22;9675;51.538;6.728;2023-08-07T04:40:57;15.40;99.90
19085;DHT22;9675;51.538;6.728;2023-08-07T04:43:24;15.40;99.90
19085;DHT22;9675;51.538;6.728;2023-08-07T04:45:52;15.40;99.90
19085;DHT22;9675;51.538;6.728;2023-08-07T04:48:21;15.40;99.90
19085;DHT22;9675;51.538;6.728;2023-08-07T04:50:50;15.40;99.90
19085;DHT22;9675;51.538;6.728;2023-08-07T04:53:17;15.40;99.90
19085;DHT22;9675;51.538;6.728;2023-08-07T04:55:45;15.40;99.90
19085;DHT22;9675;51.538;6.728;2023-08-07T04:58:12;15.30;99.90
19085;DHT22;9675;51.538;6.728;2023-08-07T05:00:39;15.30;99.90
19085;DHT22;9675;51.538;6.728;2023-08-07T05:03:06;15.30;99.90
19085;DHT22;9675;51.538;6.728;2023-08-07T05:05:35;15.30;99.90
19085;DHT22;9675;51.538;6.728;2023-08-07T05:08:02;15.30;99.90
19085;DHT22;9675;51.538;6.728;2023-08-07T05:10:29;15.20;99.90
19085;DHT22;9675;51.538;6.728;2023-08-07T05:12:56;15.20;99.90
19085;DHT22;9675;51.538;6.728;2023-08-07T05:15:23;15.30;99.90
19085;DHT22;9675;51.538;6.728;2023-08-07T05:17:52;15.30;99.90
19085;DHT22;9675;51.538;6.728;2023-08-07T05:20:19;15.30;99.90
19085;DHT22;9675;51.538;6.728;2023-08-07T05:22:48;15.30;99.90
19085;DHT22;9675;51.538;6.728;2023-08-07T05:25:16;15.20;99.90
19085;DHT22;9675;51.538;6.728;2023-08-07T05:27:44;15.20;99.90
19085;DHT22;9675;51.538;6.728;2023-08-07T05:30:12;15.20;99.90
19085;DHT22;9675;51.538;6.728;2023-08-07T05:32:40;15.20;99.90
19085;DHT22;9675;51.538;6.728;2023-08-07T05:35:08;15.20;99.90
19085;DHT22;9675;51.538;6.728;2023-08-07T05:37:35;15.20;99.90
19085;DHT22;9675;51.538;6.728;2023-08-07T05:40:05;15.20;99.90
19085;DHT22;9675;51.538;6.728;2023-08-07T05:42:33;15.20;99.90
19085;DHT22;9675;51.538;6.728;2023-08-07T05:45:00;15.10;99.90
19085;DHT22;9675;51.538;6.728;2023-08-07T05:47:27;15.10;99.90
19085;DHT22;9675;51.538;6.728;2023-08-07T05:49:54;15.10;99.90
19085;DHT22;9675;51.538;6.728;2023-08-07T05:52:21;15.10;99.90
19085;DHT22;9675;51.538;6.728;2023-08-07T05:54:48;15.10;99.90
19085;DHT22;9675;51.538;6.728;2023-08-07T05:57:17;15.10;99.90
19085;DHT22;9675;51.538;6.728;2023-08-07T05:59:45;15.10;99.90
19085;DHT22;9675;51.538;6.728;2023-08-07T06:02:12;15.10;99.90
19085;DHT22;9675;51.538;6.728;2023-08-07T06:04:39;15.10;99.90
19085;DHT22;9675;51.538;6.728;2023-08-07T06:07:06;15.10;99.90
19085;DHT22;9675;51.538;6.728;2023-08-07T06:09:33;15.10;99.90
19085;DHT22;9675;51.538;6.728;2023-08-07T06:12:00;15.10;99.90
19085;DHT22;9675;51.538;6.728;2023-08-07T06:14:29;15.10;99.90
19085;DHT22;9675;51.538;6.728;2023-08-07T06:16:55;15.10;99.90
19085;DHT22;9675;51.538;6.728;2023-08-07T06:19:23;15.10;99.90
19085;DHT22;9675;51.538;6.728;2023-08-07T06:21:52;15.10;99.90
19085;DHT22;9675;51.538;6.728;2023-08-07T06:24:19;15.10;99.90
19085;DHT22;9675;51.538;6.728;2023-08-07T06:26:47;15.10;99.90
19085;DHT22;9675;51.538;6.728;2023-08-07T06:29:14;15.10;99.90
19085;DHT22;9675;51.538;6.728;2023-08-07T06:31:42;15.10;99.90
19085;DHT22;9675;51.538;6.728;2023-08-07T06:34:09;15.10;99.90
19085;DHT22;9675;51.538;6.728;2023-08-07T06:36:36;15.10;99.90
19085;DHT22;9675;51.538;6.728;2023-08-07T06:39:03;15.10;99.90
19085;DHT22;9675;51.538;6.728;2023-08-07T06:41:30;15.10;99.90
19085;DHT22;9675;51.538;6.728;2023-08-07T06:43:57;15.10;99.90
19085;DHT22;9675;51.538;6.728;2023-08-07T06:46:24;15.10;99.90
19085;DHT22;9675;51.538;6.728;2023-08-07T06:48:54;15.10;99.90
19085;DHT22;9675;51.538;6.728;2023-08-07T06:51:21;15.10;99.90
19085;DHT22;9675;51.538;6.728;2023-08-07T06:53:48;15.10;99.90
19085;DHT22;9675;51.538;6.728;2023-08-07T06:56:15;15.10;99.90
19085;DHT22;9675;51.538;6.728;2023-08-07T06:58:43;15.10;99.90
19085;DHT22;9675;51.538;6.728;2023-08-07T07:01:10;15.10;99.90
19085;DHT22;9675;51.538;6.728;2023-08-07T07:03:37;15.10;99.90
19085;DHT22;9675;51.538;6.728;2023-08-07T07:06:05;15.10;99.90
19085;DHT22;9675;51.538;6.728;2023-08-07T07:08:33;15.20;99.90
19085;DHT22;9675;51.538;6.728;2023-08-07T07:11:00;15.20;99.90
19085;DHT22;9675;51.538;6.728;2023-08-07T07:13:27;15.20;99.90
19085;DHT22;9675;51.538;6.728;2023-08-07T07:15:54;15.20;99.90
19085;DHT22;9675;51.538;6.728;2023-08-07T07:18:21;15.20;99.90
19085;DHT22;9675;51.538;6.728;2023-08-07T07:20:56;15.20;99.90
19085;DHT22;9675;51.538;6.728;2023-08-07T07:23:26;15.20;99.90
19085;DHT22;9675;51.538;6.728;2023-08-07T07:25:53;15.20;99.90
19085;DHT22;9675;51.538;6.728;2023-08-07T07:28:20;15.20;99.90
19085;DHT22;9675;51.538;6.728;2023-08-07T07:30:48;15.20;99.90
19085;DHT22;9675;51.538;6.728;2023-08-07T07:33:16;15.20;99.90
19085;DHT22;9675;51.538;6.728;2023-08-07T07:35:43;15.20;99.90
19085;DHT22;9675;51.538;6.728;2023-08-07T07:38:10;15.20;99.90
19085;DHT22;9675;51.538;6.728;2023-08-07T07:40:38;15.20;99.90
19085;DHT22;9675;51.538;6.728;2023-08-07T07:43:06;15.20;99.90
19085;DHT22;9675;51.538;6.728;2023-08-07T07:45:33;15.20;99.90
19085;DHT22;9675;51.538;6.728;2023-08-07T07:48:01;15.20;99.90
19085;DHT22;9675;51.538;6.728;2023-08-07T07:50:28;15.20;99.90
19085;DHT22;9675;51.538;6.728;2023-08-07T07:52:55;15.20;99.90
19085;DHT22;9675;51.538;6.728;2023-08-07T07:55:22;15.20;99.90
19085;DHT22;9675;51.538;6.728;2023-08-07T07:57:53;15.20;99.90
19085;DHT22;9675;51.538;6.728;2023-08-07T08:00:21;15.20;99.90
19085;DHT22;9675;51.538;6.728;2023-08-07T08:02:51;15.20;99.90
19085;DHT22;9675;51.538;6.728;2023-08-07T08:05:18;15.20;99.90
19085;DHT22;9675;51.538;6.728;2023-08-07T08:07:46;15.20;99.90
19085;DHT22;9675;51.538;6.728;2023-08-07T08:10:13;15.20;99.90
19085;DHT22;9675;51.538;6.728;2023-08-07T08:12:40;15.30;99.90
19085;DHT22;9675;51.538;6.728;2023-08-07T08:15:09;15.30;99.90
19085;DHT22;9675;51.538;6.728;2023-08-07T08:17:36;15.30;99.90
19085;DHT22;9675;51.538;6.728;2023-08-07T08:20:05;15.30;99.90
19085;DHT22;9675;51.538;6.728;2023-08-07T08:22:33;15.30;99.90
19085;DHT22;9675;51.538;6.728;2023-08-07T08:25:00;15.30;99.90
19085;DHT22;9675;51.538;6.728;2023-08-07T08:27:29;15.40;99.90
19085;DHT22;9675;51.538;6.728;2023-08-07T08:29:56;15.40;99.90
19085;DHT22;9675;51.538;6.728;2023-08-07T08:32:25;15.40;99.90
19085;DHT22;9675;51.538;6.728;2023-08-07T08:34:52;15.40;99.90
19085;DHT22;9675;51.538;6.728;2023-08-07T08:37:19;15.50;99.90
19085;DHT22;9675;51.538;6.728;2023-08-07T08:39:46;15.50;99.90
19085;DHT22;9675;51.538;6.728;2023-08-07T08:42:13;15.50;99.90
19085;DHT22;9675;51.538;6.728;2023-08-07T08:44:45;15.50;99.90
19085;DHT22;9675;51.538;6.728;2023-08-07T08:47:18;15.50;99.90
19085;DHT22;9675;51.538;6.728;2023-08-07T08:49:49;15.50;99.90
19085;DHT22;9675;51.538;6.728;2023-08-07T08:52:21;15.50;99.90
19085;DHT22;9675;51.538;6.728;2023-08-07T08:54:49;15.60;99.90
19085;DHT22;9675;51.538;6.728;2023-08-07T08:57:17;15.60;99.90
19085;DHT22;9675;51.538;6.728;2023-08-07T08:59:45;15.60;99.90
19085;DHT22;9675;51.538;6.728;2023-08-07T09:02:12;15.60;99.90
19085;DHT22;9675;51.538;6.728;2023-08-07T09:04:39;15.60;99.90
19085;DHT22;9675;51.538;6.728;2023-08-07T09:07:09;15.70;99.90
19085;DHT22;9675;51.538;6.728;2023-08-07T09:09:38;15.80;99.90
19085;DHT22;9675;51.538;6.728;2023-08-07T09:12:08;15.80;99.90
19085;DHT22;9675;51.538;6.728;2023-08-07T09:14:44;15.80;99.90
19085;DHT22;9675;51.538;6.728;2023-08-07T09:17:13;15.90;99.90
19085;DHT22;9675;51.538;6.728;2023-08-07T09:19:41;16.00;99.90
19085;DHT22;9675;51.538;6.728;2023-08-07T09:22:10;16.00;99.90
19085;DHT22;9675;51.538;6.728;2023-08-07T09:24:37;16.00;99.90
19085;DHT22;9675;51.538;6.728;2023-08-07T09:27:06;16.10;99.90
19085;DHT22;9675;51.538;6.728;2023-08-07T09:29:35;16.10;99.90
19085;DHT22;9675;51.538;6.728;2023-08-07T09:32:07;16.10;99.90
19085;DHT22;9675;51.538;6.728;2023-08-07T09:34:34;16.10;99.90
19085;DHT22;9675;51.538;6.728;2023-08-07T09:37:01;16.10;99.90
19085;DHT22;9675;51.538;6.728;2023-08-07T09:39:31;16.10;99.90
19085;DHT22;9675;51.538;6.728;2023-08-07T09:41:58;16.10;99.90
19085;DHT22;9675;51.538;6.728;2023-08-07T09:44:35;16.20;99.90
19085;DHT22;9675;51.538;6.728;2023-08-07T09:47:11;16.20;99.90
19085;DHT22;9675;51.538;6.728;2023-08-07T09:49:39;16.30;99.90
19085;DHT22;9675;51.538;6.728;2023-08-07T09:52:07;16.30;99.90
19085;DHT22;9675;51.538;6.728;2023-08-07T09:54:37;16.30;99.90
19085;DHT22;9675;51.538;6.728;2023-08-07T09:57:05;16.30;99.90
19085;DHT22;9675;51.538;6.728;2023-08-07T09:59:32;16.40;99.90
19085;DHT22;9675;51.538;6.728;2023-08-07T10:02:01;16.50;99.90
19085;DHT22;9675;51.538;6.728;2023-08-07T10:04:30;16.50;99.90
19085;DHT22;9675;51.538;6.728;2023-08-07T10:06:57;16.50;99.90
19085;DHT22;9675;51.538;6.728;2023-08-07T10:09:26;16.60;99.90
19085;DHT22;9675;51.538;6.728;2023-08-07T10:11:55;16.60;99.90
19085;DHT22;9675;51.538;6.728;2023-08-07T10:14:23;16.70;99.90
19085;DHT22;9675;51.538;6.728;2023-08-07T10:16:52;16.70;99.90
19085;DHT22;9675;51.538;6.728;2023-08-07T10:19:19;16.70;99.90
19085;DHT22;9675;51.538;6.728;2023-08-07T10:21:48;16.80;99.90
19085;DHT22;9675;51.538;6.728;2023-08-07T10:24:17;16.80;99.90
19085;DHT22;9675;51.538;6.728;2023-08-07T10:26:46;16.80;99.90
19085;DHT22;9675;51.538;6.728;2023-08-07T10:29:18;16.80;99.90
19085;DHT22;9675;51.538;6.728;2023-08-07T10:31:47;16.80;99.90
19085;DHT22;9675;51.538;6.728;2023-08-07T10:34:16;16.90;99.90
19085;DHT22;9675;51.538;6.728;2023-08-07T10:36:43;16.90;99.90
19085;DHT22;9675;51.538;6.728;2023-08-07T10:39:12;16.90;99.90
19085;DHT22;9675;51.538;6.728;2023-08-07T10:41:40;16.90;99.90
19085;DHT22;9675;51.538;6.728;2023-08-07T10:44:20;16.90;99.90
19085;DHT22;9675;51.538;6.728;2023-08-07T10:46:49;16.90;99.90
19085;DHT22;9675;51.538;6.728;2023-08-07T10:49:41;16.90;99.90
19085;DHT22;9675;51.538;6.728;2023-08-07T10:52:09;16.90;99.90
19085;DHT22;9675;51.538;6.728;2023-08-07T10:54:39;17.00;99.90
19085;DHT22;9675;51.538;6.728;2023-08-07T10:57:11;17.00;99.90
19085;DHT22;9675;51.538;6.728;2023-08-07T10:59:49;17.00;99.90
19085;DHT22;9675;51.538;6.728;2023-08-07T11:02:23;17.00;99.90
19085;DHT22;9675;51.538;6.728;2023-08-07T11:04:54;17.00;99.90
19085;DHT22;9675;51.538;6.728;2023-08-07T11:07:28;17.10;99.90
19085;DHT22;9675;51.538;6.728;2023-08-07T11:09:57;17.20;99.90
19085;DHT22;9675;51.538;6.728;2023-08-07T11:12:26;17.20;99.90
19085;DHT22;9675;51.538;6.728;2023-08-07T11:14:55;17.30;99.90
19085;DHT22;9675;51.538;6.728;2023-08-07T11:17:24;17.30;99.90
19085;DHT22;9675;51.538;6.728;2023-08-07T11:19:53;17.40;99.90
19085;DHT22;9675;51.538;6.728;2023-08-07T11:22:20;17.40;99.90
19085;DHT22;9675;51.538;6.728;2023-08-07T11:24:48;17.40;99.90
19085;DHT22;9675;51.538;6.728;2023-08-07T11:27:16;17.50;99.90
19085;DHT22;9675;51.538;6.728;2023-08-07T11:29:47;17.50;99.90
19085;DHT22;9675;51.538;6.728;2023-08-07T11:32:17;17.50;99.90
19085;DHT22;9675;51.538;6.728;2023-08-07T11:34:48;17.60;99.90
19085;DHT22;9675;51.538;6.728;2023-08-07T11:37:17;17.60;99.90
19085;DHT22;9675;51.538;6.728;2023-08-07T11:39:44;17.70;99.90
19085;DHT22;9675;51.538;6.728;2023-08-07T11:42:13;17.70;99.90
19085;DHT22;9675;51.538;6.728;2023-08-07T11:44:40;17.80;99.90
19085;DHT22;9675;51.538;6.728;2023-08-07T11:47:09;17.80;99.90
19085;DHT22;9675;51.538;6.728;2023-08-07T11:49:38;17.90;99.90
19085;DHT22;9675;51.538;6.728;2023-08-07T11:52:06;18.00;99.90
19085;DHT22;9675;51.538;6.728;2023-08-07T11:54:33;18.10;99.90
19085;DHT22;9675;51.538;6.728;2023-08-07T11:57:01;18.10;99.90
19085;DHT22;9675;51.538;6.728;2023-08-07T11:59:41;18.20;99.90
19085;DHT22;9675;51.538;6.728;2023-08-07T12:02:11;18.30;99.90
19085;DHT22;9675;51.538;6.728;2023-08-07T12:04:41;18.40;99.90
19085;DHT22;9675;51.538;6.728;2023-08-07T12:07:08;18.40;99.90
19085;DHT22;9675;51.538;6.728;2023-08-07T12:09:36;18.50;99.90
19085;DHT22;9675;51.538;6.728;2023-08-07T12:12:06;18.60;99.90
19085;DHT22;9675;51.538;6.728;2023-08-07T12:14:34;18.60;99.90
19085;DHT22;9675;51.538;6.728;2023-08-07T12:17:02;18.70;99.90
19085;DHT22;9675;51.538;6.728;2023-08-07T12:19:36;18.70;99.90
19085;DHT22;9675;51.538;6.728;2023-08-07T12:22:09;18.80;99.90
19085;DHT22;9675;51.538;6.728;2023-08-07T12:24:37;18.80;99.90
19085;DHT22;9675;51.538;6.728;2023-08-07T12:27:04;18.90;99.90
19085;DHT22;9675;51.538;6.728;2023-08-07T12:29:32;18.90;99.90
19085;DHT22;9675;51.538;6.728;2023-08-07T12:31:59;19.00;99.90
19085;DHT22;9675;51.538;6.728;2023-08-07T12:34:28;19.00;99.90
19085;DHT22;9675;51.538;6.728;2023-08-07T12:36:55;19.10;99.90
19085;DHT22;9675;51.538;6.728;2023-08-07T12:39:23;19.10;99.90
19085;DHT22;9675;51.538;6.728;2023-08-07T12:41:51;19.10;99.90
19085;DHT22;9675;51.538;6.728;2023-08-07T12:44:18;19.10;99.90
19085;DHT22;9675;51.538;6.728;2023-08-07T12:46:45;19.10;99.90
19085;DHT22;9675;51.538;6.728;2023-08-07T12:49:12;19.10;99.90
19085;DHT22;9675;51.538;6.728;2023-08-07T12:51:39;19.10;99.90
19085;DHT22;9675;51.538;6.728;2023-08-07T12:54:06;19.20;99.90
19085;DHT22;9675;51.538;6.728;2023-08-07T12:56:34;19.20;99.90
19085;DHT22;9675;51.538;6.728;2023-08-07T12:59:01;19.20;99.90
19085;DHT22;9675;51.538;6.728;2023-08-07T13:01:29;19.30;99.90
19085;DHT22;9675;51.538;6.728;2023-08-07T13:03:56;19.30;99.90
19085;DHT22;9675;51.538;6.728;2023-08-07T13:06:23;19.30;99.90
19085;DHT22;9675;51.538;6.728;2023-08-07T13:08:50;19.40;99.90
19085;DHT22;9675;51.538;6.728;2023-08-07T13:11:20;19.40;99.90
19085;DHT22;9675;51.538;6.728;2023-08-07T13:13:48;19.40;99.90
19085;DHT22;9675;51.538;6.728;2023-08-07T13:16:15;19.40;99.90
19085;DHT22;9675;51.538;6.728;2023-08-07T13:18:42;19.50;99.90
19085;DHT22;9675;51.538;6.728;2023-08-07T13:21:09;19.60;99.90
19085;DHT22;9675;51.538;6.728;2023-08-07T13:23:36;19.60;99.90
19085;DHT22;9675;51.538;6.728;2023-08-07T13:26:03;19.70;99.90
19085;DHT22;9675;51.538;6.728;2023-08-07T13:28:29;19.70;99.90
19085;DHT22;9675;51.538;6.728;2023-08-07T13:30:57;19.90;99.90
19085;DHT22;9675;51.538;6.728;2023-08-07T13:33:24;19.90;99.90
19085;DHT22;9675;51.538;6.728;2023-08-07T13:35:52;19.90;99.90
19085;DHT22;9675;51.538;6.728;2023-08-07T13:38:19;20.00;99.90
19085;DHT22;9675;51.538;6.728;2023-08-07T13:40:46;20.00;99.90
19085;DHT22;9675;51.538;6.728;2023-08-07T13:43:13;20.00;99.90
19085;DHT22;9675;51.538;6.728;2023-08-07T13:45:40;20.00;99.90
19085;DHT22;9675;51.538;6.728;2023-08-07T13:48:09;20.00;99.90
19085;DHT22;9675;51.538;6.728;2023-08-07T13:50:36;20.10;99.90
19085;DHT22;9675;51.538;6.728;2023-08-07T13:53:04;20.20;99.90
19085;DHT22;9675;51.538;6.728;2023-08-07T13:55:31;20.20;99.90
19085;DHT22;9675;51.538;6.728;2023-08-07T13:57:58;20.20;99.90
19085;DHT22;9675;51.538;6.728;2023-08-07T14:00:25;20.20;99.90
19085;DHT22;9675;51.538;6.728;2023-08-07T14:02:53;20.20;99.90
19085;DHT22;9675;51.538;6.728;2023-08-07T14:05:22;20.20;99.90
19085;DHT22;9675;51.538;6.728;2023-08-07T14:07:49;20.30;99.90
19085;DHT22;9675;51.538;6.728;2023-08-07T14:10:16;20.30;99.90
19085;DHT22;9675;51.538;6.728;2023-08-07T14:12:43;20.30;99.90
19085;DHT22;9675;51.538;6.728;2023-08-07T14:15:10;20.30;99.90
19085;DHT22;9675;51.538;6.728;2023-08-07T14:17:38;20.40;99.90
19085;DHT22;9675;51.538;6.728;2023-08-07T14:20:06;20.40;99.90
19085;DHT22;9675;51.538;6.728;2023-08-07T14:22:37;20.40;99.90
19085;DHT22;9675;51.538;6.728;2023-08-07T14:25:07;20.50;99.90
19085;DHT22;9675;51.538;6.728;2023-08-07T14:27:34;20.50;99.90
19085;DHT22;9675;51.538;6.728;2023-08-07T14:30:02;20.50;99.90
19085;DHT22;9675;51.538;6.728;2023-08-07T14:32:29;20.50;99.90
19085;DHT22;9675;51.538;6.728;2023-08-07T14:34:56;20.50;99.90
19085;DHT22;9675;51.538;6.728;2023-08-07T14:37:23;20.60;99.90
19085;DHT22;9675;51.538;6.728;2023-08-07T14:39:52;20.60;99.90
19085;DHT22;9675;51.538;6.728;2023-08-07T14:42:19;20.70;99.90
19085;DHT22;9675;51.538;6.728;2023-08-07T14:44:46;20.70;99.90
19085;DHT22;9675;51.538;6.728;2023-08-07T14:47:13;20.80;99.90
19085;DHT22;9675;51.538;6.728;2023-08-07T14:49:42;20.80;99.90
19085;DHT22;9675;51.538;6.728;2023-08-07T14:52:09;20.80;99.90
19085;DHT22;9675;51.538;6.728;2023-08-07T14:54:36;20.80;99.90
19085;DHT22;9675;51.538;6.728;2023-08-07T14:57:05;20.90;99.90
19085;DHT22;9675;51.538;6.728;2023-08-07T14:59:32;20.90;99.90
19085;DHT22;9675;51.538;6.728;2023-08-07T15:01:59;20.90;99.90
19085;DHT22;9675;51.538;6.728;2023-08-07T15:04:26;20.90;99.90
19085;DHT22;9675;51.538;6.728;2023-08-07T15:06:53;20.90;99.90
19085;DHT22;9675;51.538;6.728;2023-08-07T15:09:20;20.90;99.90
19085;DHT22;9675;51.538;6.728;2023-08-07T15:11:47;20.90;99.90
19085;DHT22;9675;51.538;6.728;2023-08-07T15:14:16;20.90;99.90
19085;DHT22;9675;51.538;6.728;2023-08-07T15:16:44;20.90;99.90
19085;DHT22;9675;51.538;6.728;2023-08-07T15:19:11;21.00;99.90
19085;DHT22;9675;51.538;6.728;2023-08-07T15:21:38;20.90;99.90
19085;DHT22;9675;51.538;6.728;2023-08-07T15:24:05;21.00;99.90
19085;DHT22;9675;51.538;6.728;2023-08-07T15:26:32;20.90;99.90
19085;DHT22;9675;51.538;6.728;2023-08-07T15:29:03;21.00;99.90
19085;DHT22;9675;51.538;6.728;2023-08-07T15:31:31;20.90;99.90
19085;DHT22;9675;51.538;6.728;2023-08-07T15:33:59;20.90;99.90
19085;DHT22;9675;51.538;6.728;2023-08-07T15:36:26;20.90;99.90
19085;DHT22;9675;51.538;6.728;2023-08-07T15:38:53;20.90;99.90
19085;DHT22;9675;51.538;6.728;2023-08-07T15:41:21;20.90;99.90
19085;DHT22;9675;51.538;6.728;2023-08-07T15:43:48;20.90;99.90
19085;DHT22;9675;51.538;6.728;2023-08-07T15:46:15;20.90;99.90
19085;DHT22;9675;51.538;6.728;2023-08-07T15:48:46;21.00;99.90
19085;DHT22;9675;51.538;6.728;2023-08-07T15:51:14;20.90;99.90